Time;durP1;ratioP1;P1;durP2;ratioP2;P2;SDS_P1;SDS_P2;PMS_P1;PMS_P2;Temp;Humidity;BMP_temperature;BMP_pressure;BME280_temperature;BME280_humidity;BME280_pressure;Samples;Min_cycle;Max_cycle;Signal;HPM_P1;HPM_P2
2022/06/13 00:02:24;;;;;;;9.67;2.23;;;;;;;;;;5078796;28;20038;-71
2022/06/13 00:04:50;;;;;;;12.33;2.97;;;;;;;;;;5081915;28;20597;-70
2022/06/13 00:07:15;;;;;;;12.50;2.42;;;;;;;;;;5082631;28;20070;-70
2022/06/13 00:09:40;;;;;;;11.03;2.30;;;;;;;;;;5069525;28;20115;-70
2022/06/13 00:12:05;;;;;;;9.73;2.50;;;;;;;;;;5067197;28;20290;-70
2022/06/13 00:14:30;;;;;;;9.52;2.15;;;;;;;;;;5082737;28;20341;-70
2022/06/13 00:16:55;;;;;;;8.10;2.10;;;;;;;;;;5074602;28;20021;-70
2022/06/13 00:19:21;;;;;;;13.30;2.23;;;;;;;;;;5079811;28;20046;-70
2022/06/13 00:21:46;;;;;;;16.17;2.57;;;;;;;;;;5079750;28;20386;-70
2022/06/13 00:24:11;;;;;;;14.23;2.67;;;;;;;;;;5067616;28;20619;-70
2022/06/13 00:26:37;;;;;;;5.90;2.23;;;;;;;;;;5072502;28;20549;-70
2022/06/13 00:29:03;;;;;;;10.23;2.33;;;;;;;;;;5087567;28;20360;-70
2022/06/13 00:31:28;;;;;;;9.93;2.47;;;;;;;;;;5057770;28;20028;-70
2022/06/13 00:33:53;;;;;;;7.78;1.67;;;;;;;;;;5083777;28;20020;-70
2022/06/13 00:36:21;;;;;;;8.05;2.50;;;;;;;;;;5075283;28;20028;-70
2022/06/13 00:38:48;;;;;;;10.65;2.33;;;;;;;;;;5067443;28;20119;-70
2022/06/13 00:41:14;;;;;;;10.35;2.33;;;;;;;;;;5080226;28;20020;-70
2022/06/13 00:43:41;;;;;;;9.23;2.33;;;;;;;;;;5060830;22;20488;-69
2022/06/13 00:46:21;;;;;;;13.82;2.25;;;;;;;;;;5049962;28;20060;-69
2022/06/13 00:48:47;;;;;;;6.90;2.33;;;;;;;;;;5063792;28;20048;-69
2022/06/13 00:51:12;;;;;;;8.52;2.60;;;;;;;;;;5054821;28;20051;-69
2022/06/13 00:53:38;;;;;;;7.93;2.53;;;;;;;;;;5047267;28;20505;-69
2022/06/13 00:56:09;;;;;;;12.43;2.75;;;;;;;;;;5050916;28;20024;-69
2022/06/13 00:58:38;;;;;;;15.52;2.83;;;;;;;;;;5066497;28;20028;-69
2022/06/13 01:01:03;;;;;;;14.73;2.90;;;;;;;;;;5063382;28;20017;-69
2022/06/13 01:03:29;;;;;;;10.27;2.20;;;;;;;;;;5053834;28;20095;-69
2022/06/13 01:05:55;;;;;;;9.80;2.55;;;;;;;;;;5055481;28;20123;-69
2022/06/13 01:08:23;;;;;;;7.53;2.75;;;;;;;;;;5049807;28;20020;-69
2022/06/13 01:13:54;;;;;;;7.28;2.35;;;;;;;;;;5066510;28;20034;-69
2022/06/13 01:16:19;;;;;;;10.75;2.63;;;;;;;;;;5058938;28;20024;-69
2022/06/13 01:18:44;;;;;;;10.13;2.50;;;;;;;;;;5063033;28;20012;-69
2022/06/13 01:21:27;;;;;;;13.60;3.03;;;;;;;;;;5050291;28;20035;-69
2022/06/13 01:23:55;;;;;;;12.00;2.85;;;;;;;;;;5059661;28;20753;-69
2022/06/13 01:26:41;;;;;;;10.93;3.33;;;;;;;;;;5055357;28;20032;-69
2022/06/13 01:29:24;;;;;;;11.88;3.03;;;;;;;;;;5059855;28;20067;-69
2022/06/13 01:31:56;;;;;;;12.88;2.67;;;;;;;;;;5061769;28;20028;-69
2022/06/13 01:34:43;;;;;;;7.10;2.97;;;;;;;;;;5060937;28;20078;-69
2022/06/13 01:37:20;;;;;;;9.50;2.88;;;;;;;;;;5051969;28;20484;-70
2022/06/13 01:39:48;;;;;;;5.43;2.47;;;;;;;;;;5059678;28;20021;-69
2022/06/13 01:42:32;;;;;;;10.30;2.42;;;;;;;;;;5059669;28;20051;-69
2022/06/13 01:44:57;;;;;;;11.75;3.50;;;;;;;;;;5062252;28;20025;-70
2022/06/13 01:47:22;;;;;;;8.88;2.92;;;;;;;;;;5057942;28;20476;-70
2022/06/13 01:49:55;;;;;;;10.73;4.03;;;;;;;;;;5049836;28;20033;-69
2022/06/13 01:52:23;;;;;;;8.32;2.85;;;;;;;;;;5055483;28;20491;-69
2022/06/13 01:55:01;;;;;;;8.02;2.95;;;;;;;;;;5069241;28;20017;-69
2022/06/13 01:57:56;;;;;;;13.80;3.78;;;;;;;;;;5054980;28;20111;-69
2022/06/13 02:00:27;;;;;;;10.75;3.13;;;;;;;;;;5041286;28;20033;-69
2022/06/13 02:02:52;;;;;;;7.70;2.67;;;;;;;;;;5049036;28;20484;-69
2022/06/13 02:05:36;;;;;;;6.88;2.85;;;;;;;;;;5058652;28;20112;-69
2022/06/13 02:08:28;;;;;;;12.40;3.20;;;;;;;;;;5056337;28;20023;-69
2022/06/13 02:10:55;;;;;;;5.05;2.70;;;;;;;;;;5054177;28;20040;-69
2022/06/13 02:13:47;;;;;;;12.65;3.42;;;;;;;;;;5054862;28;20024;-69
2022/06/13 02:16:15;;;;;;;14.55;2.80;;;;;;;;;;5017365;28;20030;-69
2022/06/13 02:18:54;;;;;;;7.70;2.83;;;;;;;;;;5055998;28;20041;-69
2022/06/13 02:21:20;;;;;;;6.68;2.60;;;;;;;;;;5059611;28;20027;-69
2022/06/13 02:23:49;;;;;;;7.47;2.67;;;;;;;;;;5048167;28;20013;-69
2022/06/13 02:26:19;;;;;;;6.90;3.72;;;;;;;;;;5059105;28;20017;-69
2022/06/13 02:28:51;;;;;;;9.75;3.58;;;;;;;;;;5062071;28;20024;-69
2022/06/13 02:31:19;;;;;;;8.50;2.95;;;;;;;;;;5058291;28;20025;-69
2022/06/13 02:33:51;;;;;;;7.47;2.97;;;;;;;;;;5056006;28;20095;-69
2022/06/13 02:36:21;;;;;;;12.15;3.17;;;;;;;;;;5061978;28;20055;-69
2022/06/13 02:39:07;;;;;;;10.00;2.90;;;;;;;;;;5060043;28;20381;-69
2022/06/13 02:41:42;;;;;;;14.20;3.25;;;;;;;;;;5060410;28;20032;-69
2022/06/13 02:44:30;;;;;;;7.05;2.65;;;;;;;;;;5066018;28;20115;-69
2022/06/13 02:47:02;;;;;;;7.13;2.85;;;;;;;;;;5045077;28;20040;-69
2022/06/13 02:49:35;;;;;;;9.63;2.80;;;;;;;;;;5055711;28;20055;-69
2022/06/13 02:52:17;;;;;;;8.95;2.67;;;;;;;;;;5059272;28;20032;-69
2022/06/13 02:54:42;;;;;;;7.32;2.55;;;;;;;;;;5058173;28;20387;-70
2022/06/13 02:57:27;;;;;;;10.13;3.55;;;;;;;;;;5055624;28;20021;-70
2022/06/13 03:00:11;;;;;;;11.85;2.75;;;;;;;;;;5054329;28;20055;-69
2022/06/13 03:02:57;;;;;;;8.98;3.08;;;;;;;;;;5056637;28;20021;-70
2022/06/13 03:05:39;;;;;;;9.82;2.97;;;;;;;;;;5054989;28;20024;-70
2022/06/13 03:08:06;;;;;;;7.60;3.33;;;;;;;;;;5055188;28;20066;-71
2022/06/13 03:10:39;;;;;;;8.95;2.80;;;;;;;;;;5055100;28;20017;-70
2022/06/13 03:13:08;;;;;;;8.60;2.67;;;;;;;;;;5057584;28;20448;-69
2022/06/13 03:15:44;;;;;;;9.17;3.00;;;;;;;;;;5056988;28;20441;-70
2022/06/13 03:18:15;;;;;;;9.88;3.15;;;;;;;;;;5055596;28;20271;-70
2022/06/13 03:20:43;;;;;;;9.95;2.67;;;;;;;;;;5062678;28;20032;-70
2022/06/13 03:23:12;;;;;;;12.00;2.90;;;;;;;;;;5051505;28;20028;-70
2022/06/13 03:25:55;;;;;;;11.80;3.40;;;;;;;;;;5055626;28;20363;-70
2022/06/13 03:28:23;;;;;;;7.85;3.00;;;;;;;;;;5047902;28;20484;-70
2022/06/13 03:31:08;;;;;;;11.60;3.00;;;;;;;;;;5046599;28;20435;-69
2022/06/13 03:33:41;;;;;;;5.20;2.50;;;;;;;;;;5060040;28;20020;-69
2022/06/13 03:36:24;;;;;;;14.13;2.80;;;;;;;;;;5053031;28;20025;-70
2022/06/13 03:38:56;;;;;;;8.75;3.05;;;;;;;;;;5051785;28;20029;-70
2022/06/13 03:41:24;;;;;;;9.20;3.35;;;;;;;;;;5042347;28;20017;-70
2022/06/13 03:43:52;;;;;;;9.05;3.35;;;;;;;;;;5054347;28;20119;-70
2022/06/13 03:46:21;;;;;;;10.18;4.28;;;;;;;;;;5056511;28;20028;-70
2022/06/13 03:48:46;;;;;;;5.70;2.80;;;;;;;;;;5065684;28;20099;-70
2022/06/13 03:51:16;;;;;;;6.83;3.10;;;;;;;;;;5048199;28;20462;-70
2022/06/13 03:53:41;;;;;;;;;;;;;;;;;;5051828;28;20274;-71
2022/06/13 03:56:07;;;;;;;9.40;2.88;;;;;;;;;;5061741;28;20129;-70
2022/06/13 03:58:34;;;;;;;12.18;3.33;;;;;;;;;;5052779;28;20191;-70
2022/06/13 04:01:13;;;;;;;10.10;3.20;;;;;;;;;;5052573;28;20047;-70
2022/06/13 04:03:38;;;;;;;11.80;3.15;;;;;;;;;;5062097;28;20115;-70
2022/06/13 04:06:05;;;;;;;17.10;3.97;;;;;;;;;;5051587;28;20166;-70
2022/06/13 04:08:32;;;;;;;14.40;4.28;;;;;;;;;;5054111;28;20498;-70
2022/06/13 04:11:00;;;;;;;9.30;3.35;;;;;;;;;;5027800;28;20036;-70
2022/06/13 04:13:37;;;;;;;14.60;3.28;;;;;;;;;;5047013;28;20017;-70
2022/06/13 04:16:17;;;;;;;13.70;3.35;;;;;;;;;;5050172;28;20019;-69
2022/06/13 04:18:55;;;;;;;13.77;3.30;;;;;;;;;;5060243;28;20131;-70
2022/06/13 04:21:31;;;;;;;8.77;3.10;;;;;;;;;;5051281;28;20032;-71
2022/06/13 04:24:15;;;;;;;9.10;2.83;;;;;;;;;;5061863;28;20028;-70
2022/06/13 04:26:46;;;;;;;7.07;3.03;;;;;;;;;;5046265;28;20500;-70
2022/06/13 04:29:18;;;;;;;9.07;3.22;;;;;;;;;;5065538;28;20028;-70
2022/06/13 04:31:44;;;;;;;10.57;3.70;;;;;;;;;;5052242;28;20059;-70
2022/06/13 04:34:14;;;;;;;7.63;3.17;;;;;;;;;;5053357;28;20025;-70
2022/06/13 04:36:40;;;;;;;10.57;3.72;;;;;;;;;;5062947;28;20021;-69
2022/06/13 04:39:07;;;;;;;7.47;3.00;;;;;;;;;;5060731;28;20531;-70
2022/06/13 04:41:34;;;;;;;7.90;2.85;;;;;;;;;;5066202;28;20028;-70
2022/06/13 04:44:01;;;;;;;14.02;3.40;;;;;;;;;;5065196;28;20036;-69
2022/06/13 04:46:27;;;;;;;8.18;3.05;;;;;;;;;;5056124;28;20020;-70
2022/06/13 04:48:54;;;;;;;16.05;3.40;;;;;;;;;;5054901;28;20040;-70
2022/06/13 04:51:22;;;;;;;10.52;3.65;;;;;;;;;;5048852;28;20028;-70
2022/06/13 04:54:10;;;;;;;11.30;3.25;;;;;;;;;;5059829;28;20051;-70
2022/06/13 04:56:35;;;;;;;14.60;3.85;;;;;;;;;;5048397;28;20083;-70
2022/06/13 04:59:01;;;;;;;14.45;3.53;;;;;;;;;;5047921;28;20025;-70
2022/06/13 05:01:29;;;;;;;7.80;3.05;;;;;;;;;;5058330;28;20095;-70
2022/06/13 05:03:56;;;;;;;13.77;3.90;;;;;;;;;;5051235;28;20032;-69
2022/06/13 05:06:33;;;;;;;13.10;4.57;;;;;;;;;;5053637;28;20456;-70
2022/06/13 05:09:01;;;;;;;14.45;4.22;;;;;;;;;;5050050;28;20102;-70
2022/06/13 05:11:28;;;;;;;9.75;3.55;;;;;;;;;;5049267;28;20032;-68
2022/06/13 05:14:15;;;;;;;16.58;4.25;;;;;;;;;;5062527;28;20078;-71
2022/06/13 05:16:46;;;;;;;10.80;4.45;;;;;;;;;;5059854;28;20020;-69
2022/06/13 05:19:26;;;;;;;11.80;4.40;;;;;;;;;;5055108;28;20021;-67
2022/06/13 05:22:00;;;;;;;17.02;4.47;;;;;;;;;;5054680;28;20062;-67
2022/06/13 05:24:45;;;;;;;15.73;4.35;;;;;;;;;;5061807;28;20078;-67
2022/06/13 05:27:10;;;;;;;14.32;3.72;;;;;;;;;;5058315;28;20512;-68
2022/06/13 05:29:36;;;;;;;8.73;2.97;;;;;;;;;;5055584;28;20024;-68
2022/06/13 05:32:02;;;;;;;11.90;3.97;;;;;;;;;;5058714;28;20051;-68
2022/06/13 05:34:32;;;;;;;18.75;5.57;;;;;;;;;;5038655;28;20024;-67
2022/06/13 05:36:57;;;;;;;24.65;5.10;;;;;;;;;;5052672;28;20024;-68
2022/06/13 05:39:22;;;;;;;20.35;5.85;;;;;;;;;;5060176;28;20023;-68
2022/06/13 05:41:48;;;;;;;26.10;4.75;;;;;;;;;;5049763;28;21411;-68
2022/06/13 05:44:13;;;;;;;18.23;6.00;;;;;;;;;;5047368;28;20033;-69
2022/06/13 05:46:38;;;;;;;16.65;5.38;;;;;;;;;;5053962;28;20333;-69
2022/06/13 05:49:04;;;;;;;20.80;5.72;;;;;;;;;;5061747;28;20497;-69
2022/06/13 05:51:29;;;;;;;15.27;5.82;;;;;;;;;;5059211;28;20083;-69
2022/06/13 05:53:58;;;;;;;17.40;5.60;;;;;;;;;;5058092;28;20453;-69
2022/06/13 05:56:24;;;;;;;16.00;6.40;;;;;;;;;;5051489;28;20307;-69
2022/06/13 05:58:49;;;;;;;17.58;6.32;;;;;;;;;;5052636;28;20021;-69
2022/06/13 06:01:15;;;;;;;16.80;6.68;;;;;;;;;;5049363;28;20434;-69
2022/06/13 06:03:41;;;;;;;13.18;6.15;;;;;;;;;;5047016;28;20100;-70
2022/06/13 06:06:06;;;;;;;18.95;6.90;;;;;;;;;;5062898;28;20024;-69
2022/06/13 06:08:35;;;;;;;16.73;5.55;;;;;;;;;;5047202;28;20025;-70
2022/06/13 06:11:00;;;;;;;15.07;6.50;;;;;;;;;;5054214;28;20021;-70
2022/06/13 06:13:26;;;;;;;24.63;7.28;;;;;;;;;;5047898;28;20079;-69
2022/06/13 06:15:51;;;;;;;13.43;5.75;;;;;;;;;;5049441;28;20028;-70
2022/06/13 06:18:17;;;;;;;19.92;6.10;;;;;;;;;;5058369;28;20047;-69
2022/06/13 06:20:43;;;;;;;26.92;6.78;;;;;;;;;;5055192;28;20500;-69
2022/06/13 06:23:09;;;;;;;16.23;7.63;;;;;;;;;;5051120;28;20028;-69
2022/06/13 06:25:34;;;;;;;15.55;6.85;;;;;;;;;;5045820;28;20274;-70
2022/06/13 06:28:00;;;;;;;21.87;8.10;;;;;;;;;;5056424;28;20365;-69
2022/06/13 06:30:28;;;;;;;33.00;11.02;;;;;;;;;;5052616;28;20278;-69
2022/06/13 06:32:55;;;;;;;17.58;7.72;;;;;;;;;;5062614;28;20024;-69
2022/06/13 06:35:20;;;;;;;21.35;6.60;;;;;;;;;;5052802;28;20056;-69
2022/06/13 06:37:46;;;;;;;20.98;7.57;;;;;;;;;;5047094;28;20021;-69
2022/06/13 06:40:12;;;;;;;16.23;7.38;;;;;;;;;;5050945;28;20028;-69
2022/06/13 06:42:37;;;;;;;16.70;7.20;;;;;;;;;;5062479;28;20031;-70
2022/06/13 06:45:03;;;;;;;25.50;8.03;;;;;;;;;;5062178;28;20021;-69
2022/06/13 06:47:28;;;;;;;20.98;7.68;;;;;;;;;;5050058;28;20289;-69
2022/06/13 06:49:54;;;;;;;21.63;8.00;;;;;;;;;;5045882;28;20033;-69
2022/06/13 06:52:19;;;;;;;27.67;10.00;;;;;;;;;;5049597;28;20298;-69
2022/06/13 07:00:12;;;;;;;17.88;8.20;;;;;;;;;;5053224;28;20074;-69
2022/06/13 07:02:38;;;;;;;22.38;8.60;;;;;;;;;;5062864;28;20021;-69
2022/06/13 07:05:04;;;;;;;22.17;9.18;;;;;;;;;;5051045;28;20092;-69
2022/06/13 07:07:29;;;;;;;29.15;9.45;;;;;;;;;;5054785;28;20025;-69
2022/06/13 07:09:55;;;;;;;24.98;8.88;;;;;;;;;;5052794;28;20432;-70
2022/06/13 07:12:20;;;;;;;29.00;8.20;;;;;;;;;;5047033;28;20029;-69
2022/06/13 07:14:45;;;;;;;28.02;8.13;;;;;;;;;;5048174;28;20489;-69
2022/06/13 07:17:12;;;;;;;21.02;8.25;;;;;;;;;;5047870;28;20043;-70
2022/06/13 07:19:38;;;;;;;24.48;7.70;;;;;;;;;;5054036;28;20013;-70
2022/06/13 07:22:04;;;;;;;22.33;6.00;;;;;;;;;;5047431;28;20039;-68
2022/06/13 07:24:31;;;;;;;16.38;6.03;;;;;;;;;;5050357;28;20547;-68
2022/06/13 07:26:56;;;;;;;26.60;5.72;;;;;;;;;;5052915;28;20131;-68
2022/06/13 07:29:21;;;;;;;16.88;5.50;;;;;;;;;;5053084;28;20537;-68
2022/06/13 07:31:48;;;;;;;24.10;6.90;;;;;;;;;;5050814;28;20029;-69
2022/06/13 07:34:16;;;;;;;20.83;6.03;;;;;;;;;;5056276;28;20353;-69
2022/06/13 07:36:42;;;;;;;19.23;6.68;;;;;;;;;;5061699;28;20601;-69
2022/06/13 07:39:07;;;;;;;25.48;6.40;;;;;;;;;;5045384;28;20017;-69
2022/06/13 07:41:33;;;;;;;21.83;6.72;;;;;;;;;;5048165;28;20039;-69
2022/06/13 07:43:58;;;;;;;19.60;6.22;;;;;;;;;;5059754;28;20035;-69
2022/06/13 07:46:25;;;;;;;17.25;6.75;;;;;;;;;;5058381;28;20372;-70
2022/06/13 07:48:50;;;;;;;28.40;6.82;;;;;;;;;;5070356;28;20073;-70
2022/06/13 07:51:15;;;;;;;24.70;7.05;;;;;;;;;;5052531;28;20021;-69
2022/06/13 07:53:41;;;;;;;25.42;8.45;;;;;;;;;;5048617;28;20021;-69
2022/06/13 07:56:06;;;;;;;33.53;7.93;;;;;;;;;;5054179;28;20479;-70
2022/06/13 07:58:33;;;;;;;28.52;8.02;;;;;;;;;;5060431;28;20527;-69
2022/06/13 08:00:59;;;;;;;27.70;6.30;;;;;;;;;;5061399;28;20541;-69
2022/06/13 08:03:25;;;;;;;25.50;7.43;;;;;;;;;;5049874;28;20103;-69
2022/06/13 08:05:51;;;;;;;23.75;6.85;;;;;;;;;;5061807;28;20035;-70
2022/06/13 08:08:17;;;;;;;21.75;7.35;;;;;;;;;;5051546;28;20469;-70
2022/06/13 08:10:42;;;;;;;21.42;6.43;;;;;;;;;;5060145;28;20476;-69
2022/06/13 08:13:08;;;;;;;21.63;6.90;;;;;;;;;;5061306;28;20021;-69
2022/06/13 08:15:34;;;;;;;23.67;6.85;;;;;;;;;;5063640;28;20118;-69
2022/06/13 08:17:59;;;;;;;29.00;7.97;;;;;;;;;;5064223;28;20135;-69
2022/06/13 08:20:24;;;;;;;26.05;8.82;;;;;;;;;;5055977;28;20375;-69
2022/06/13 08:22:49;;;;;;;36.42;10.25;;;;;;;;;;5034822;28;20112;-69
2022/06/13 08:25:26;;;;;;;26.42;10.38;;;;;;;;;;5049228;28;20477;-69
2022/06/13 08:27:52;;;;;;;30.55;11.60;;;;;;;;;;5058269;28;20060;-70
2022/06/13 08:30:17;;;;;;;30.30;12.63;;;;;;;;;;5058710;28;20044;-70
2022/06/13 08:32:42;;;;;;;27.17;12.57;;;;;;;;;;5069316;28;20024;-70
2022/06/13 08:35:08;;;;;;;39.00;13.80;;;;;;;;;;5038956;28;20049;-70
2022/06/13 08:37:33;;;;;;;39.17;13.32;;;;;;;;;;5048959;28;20052;-70
2022/06/13 08:39:59;;;;;;;35.15;12.63;;;;;;;;;;5052756;28;20418;-70
2022/06/13 08:42:31;;;;;;;39.92;12.88;;;;;;;;;;5063982;28;20548;-70
2022/06/13 08:45:07;;;;;;;31.65;12.18;;;;;;;;;;5058081;28;20025;-70
2022/06/13 08:47:32;;;;;;;28.85;12.15;;;;;;;;;;5049572;28;20043;-70
2022/06/13 08:50:00;;;;;;;27.60;10.80;;;;;;;;;;5070158;28;20023;-70
2022/06/13 08:52:27;;;;;;;32.05;11.77;;;;;;;;;;5052764;28;20630;-70
2022/06/13 08:55:02;;;;;;;26.05;8.20;;;;;;;;;;5069370;28;20111;-70
2022/06/13 08:57:30;;;;;;;28.13;11.10;;;;;;;;;;5058669;28;20068;-70
2022/06/13 09:00:03;;;;;;;32.45;11.35;;;;;;;;;;5048493;28;20077;-70
2022/06/13 09:02:32;;;;;;;33.40;11.45;;;;;;;;;;5054087;28;20025;-70
2022/06/13 09:04:58;;;;;;;30.40;9.18;;;;;;;;;;5060227;28;20028;-70
2022/06/13 09:07:23;;;;;;;26.50;9.10;;;;;;;;;;5063392;28;20440;-70
2022/06/13 09:09:55;;;;;;;28.45;9.60;;;;;;;;;;5062108;28;20032;-70
2022/06/13 09:12:24;;;;;;;27.27;9.18;;;;;;;;;;5059459;28;20089;-70
2022/06/13 09:14:57;;;;;;;31.25;10.35;;;;;;;;;;5047190;28;20083;-70
2022/06/13 09:17:28;;;;;;;25.58;8.85;;;;;;;;;;5050099;28;20095;-70
2022/06/13 09:19:56;;;;;;;37.35;10.27;;;;;;;;;;5047686;28;20104;-70
2022/06/13 09:22:25;;;;;;;26.05;8.77;;;;;;;;;;5053762;28;20470;-70
2022/06/13 09:24:55;;;;;;;31.92;8.68;;;;;;;;;;5067236;28;20481;-70
2022/06/13 09:27:50;;;;;;;27.52;8.63;;;;;;;;;;5054232;28;20701;-70
2022/06/13 09:30:22;;;;;;;31.98;8.35;;;;;;;;;;5032139;28;20041;-70
2022/06/13 09:32:50;;;;;;;26.38;7.95;;;;;;;;;;5055279;28;20099;-70
2022/06/13 09:35:16;;;;;;;33.85;7.70;;;;;;;;;;5061184;28;20031;-70
2022/06/13 09:37:48;;;;;;;17.50;6.18;;;;;;;;;;5063158;28;20024;-70
2022/06/13 09:40:14;;;;;;;32.75;7.75;;;;;;;;;;5050477;28;20189;-70
2022/06/13 09:42:59;;;;;;;20.35;5.95;;;;;;;;;;5050257;28;20541;-70
2022/06/13 09:45:34;;;;;;;18.35;5.35;;;;;;;;;;5059102;28;20179;-70
2022/06/13 09:48:08;;;;;;;24.10;5.55;;;;;;;;;;5057797;28;20032;-70
2022/06/13 09:50:45;;;;;;;17.60;4.57;;;;;;;;;;5063955;28;20028;-70
2022/06/13 09:53:28;;;;;;;28.08;5.47;;;;;;;;;;5053637;28;20013;-70
2022/06/13 09:55:58;;;;;;;18.23;4.95;;;;;;;;;;5051170;28;20052;-70
2022/06/13 09:58:30;;;;;;;16.60;5.05;;;;;;;;;;5053489;28;20031;-70
2022/06/13 10:01:10;;;;;;;18.75;4.78;;;;;;;;;;5060250;28;20078;-69
2022/06/13 10:03:51;;;;;;;22.23;4.85;;;;;;;;;;5055197;28;20016;-69
2022/06/13 10:06:30;;;;;;;27.65;6.55;;;;;;;;;;5052051;28;20016;-70
2022/06/13 10:09:04;;;;;;;16.45;4.80;;;;;;;;;;5044231;28;20033;-70
2022/06/13 10:11:32;;;;;;;16.02;4.38;;;;;;;;;;5050750;28;20458;-70
2022/06/13 10:14:06;;;;;;;25.48;6.57;;;;;;;;;;5047453;28;20091;-69
2022/06/13 10:16:50;;;;;;;22.58;4.53;;;;;;;;;;5044565;28;20478;-69
2022/06/13 10:19:27;;;;;;;24.60;5.47;;;;;;;;;;5051610;28;20087;-69
2022/06/13 10:21:58;;;;;;;15.07;3.70;;;;;;;;;;5048720;28;20045;-69
2022/06/13 10:24:38;;;;;;;21.63;5.20;;;;;;;;;;5050172;28;20020;-69
2022/06/13 10:27:13;;;;;;;12.07;3.95;;;;;;;;;;5029750;28;20044;-69
2022/06/13 10:29:56;;;;;;;19.05;4.72;;;;;;;;;;5060740;28;20406;-70
2022/06/13 10:32:40;;;;;;;18.70;4.05;;;;;;;;;;5056679;28;20053;-70
2022/06/13 10:35:08;;;;;;;13.50;3.53;;;;;;;;;;5063143;28;20021;-70
2022/06/13 10:37:36;;;;;;;20.48;4.03;;;;;;;;;;5057695;28;20420;-70
2022/06/13 10:40:03;;;;;;;20.17;3.67;;;;;;;;;;5048524;28;20198;-70
2022/06/13 10:42:30;;;;;;;19.15;6.03;;;;;;;;;;5053186;28;20781;-70
2022/06/13 10:44:55;;;;;;;18.65;5.32;;;;;;;;;;5051709;28;20056;-70
2022/06/13 10:47:29;;;;;;;19.33;4.47;;;;;;;;;;5058882;28;20048;-70
2022/06/13 10:49:58;;;;;;;14.93;4.25;;;;;;;;;;5058711;28;20020;-70
2022/06/13 10:52:24;;;;;;;16.30;4.35;;;;;;;;;;5056021;28;20405;-70
2022/06/13 10:54:51;;;;;;;20.55;4.18;;;;;;;;;;5050438;28;20105;-70
2022/06/13 10:57:21;;;;;;;27.67;3.80;;;;;;;;;;5046728;28;20476;-70
2022/06/13 11:00:06;;;;;;;18.25;3.40;;;;;;;;;;5058779;28;20145;-69
2022/06/13 11:02:31;;;;;;;12.45;3.25;;;;;;;;;;5056030;28;20028;-68
2022/06/13 11:05:10;;;;;;;14.13;3.67;;;;;;;;;;5052600;28;20032;-68
2022/06/13 11:07:42;;;;;;;25.27;4.43;;;;;;;;;;5048144;28;20013;-68
2022/06/13 11:10:16;;;;;;;16.95;3.70;;;;;;;;;;5055243;28;20349;-68
2022/06/13 11:12:47;;;;;;;16.30;2.85;;;;;;;;;;5054976;28;20048;-68
2022/06/13 11:24:08;;;;;;;7.82;1.95;;;;;;;;;;5055647;28;20516;-68
2022/06/13 11:29:22;;;;;;;6.13;2.22;;;;;;;;;;5048714;28;20677;-68
2022/06/13 11:31:57;;;;;;;12.52;3.05;;;;;;;;;;5046063;28;20017;-69
2022/06/13 11:34:28;;;;;;;13.20;2.28;;;;;;;;;;5055320;28;20018;-69
2022/06/13 11:36:58;;;;;;;15.50;2.97;;;;;;;;;;5056802;28;20021;-69
2022/06/13 11:39:37;;;;;;;10.27;2.20;;;;;;;;;;5046933;28;20112;-69
2022/06/13 11:42:03;;;;;;;14.05;2.53;;;;;;;;;;5044706;28;20036;-69
2022/06/13 11:44:29;;;;;;;9.63;1.80;;;;;;;;;;5061946;28;20534;-68
2022/06/13 11:46:56;;;;;;;7.18;2.42;;;;;;;;;;5057756;28;20140;-69
2022/06/13 11:49:39;;;;;;;6.85;2.17;;;;;;;;;;5061129;28;20357;-70
2022/06/13 11:52:07;;;;;;;7.80;2.33;;;;;;;;;;5057842;28;20151;-69
2022/06/13 11:54:51;;;;;;;7.45;2.13;;;;;;;;;;5057718;28;20036;-69
2022/06/13 11:57:34;;;;;;;9.32;2.25;;;;;;;;;;5047088;28;20020;-69
2022/06/13 11:59:59;;;;;;;12.55;2.00;;;;;;;;;;5052020;28;20021;-69
2022/06/13 12:02:26;;;;;;;6.70;2.70;;;;;;;;;;5055114;28;20017;-70
2022/06/13 12:04:55;;;;;;;7.93;2.03;;;;;;;;;;5044681;28;20271;-70
2022/06/13 12:07:23;;;;;;;9.25;2.50;;;;;;;;;;5055278;28;20122;-69
2022/06/13 12:09:52;;;;;;;9.80;2.78;;;;;;;;;;5052508;28;20021;-69
2022/06/13 12:12:18;;;;;;;11.27;2.28;;;;;;;;;;5048976;28;20513;-69
2022/06/13 12:14:43;;;;;;;12.18;2.22;;;;;;;;;;5058370;28;20049;-70
2022/06/13 12:17:11;;;;;;;8.57;2.08;;;;;;;;;;5049548;28;20020;-70
2022/06/13 12:19:40;;;;;;;10.45;2.53;;;;;;;;;;5055075;28;20600;-70
2022/06/13 12:22:15;;;;;;;7.75;2.42;;;;;;;;;;5055739;28;20595;-70
2022/06/13 12:24:55;;;;;;;8.15;2.28;;;;;;;;;;5048485;28;20523;-70
2022/06/13 12:27:26;;;;;;;10.98;2.53;;;;;;;;;;5056093;28;20405;-68
2022/06/13 12:29:57;;;;;;;12.82;1.50;;;;;;;;;;5046594;28;20025;-68
2022/06/13 12:32:24;;;;;;;9.07;1.55;;;;;;;;;;5056546;28;20043;-68
2022/06/13 12:35:13;;;;;;;9.35;1.90;;;;;;;;;;5058555;28;20032;-68
2022/06/13 12:37:44;;;;;;;12.35;1.77;;;;;;;;;;5050753;28;20393;-68
2022/06/13 12:40:18;;;;;;;10.10;2.67;;;;;;;;;;5045865;28;20033;-68
2022/06/13 12:42:43;;;;;;;8.98;1.67;;;;;;;;;;5048306;28;20048;-68
2022/06/13 12:45:17;;;;;;;8.10;2.10;;;;;;;;;;5041433;28;20033;-68
2022/06/13 12:47:50;;;;;;;7.25;2.30;;;;;;;;;;5051499;28;20112;-69
2022/06/13 12:50:29;;;;;;;9.40;1.73;;;;;;;;;;5062484;28;20031;-69
2022/06/13 12:53:12;;;;;;;9.77;2.42;;;;;;;;;;5061335;28;20097;-69
2022/06/13 12:55:50;;;;;;;7.85;1.80;;;;;;;;;;5049679;28;20515;-69
2022/06/13 12:58:18;;;;;;;9.23;1.90;;;;;;;;;;5058465;28;20036;-69
2022/06/13 13:00:50;;;;;;;7.68;2.20;;;;;;;;;;5065672;28;20021;-69
2022/06/13 13:03:24;;;;;;;6.03;1.50;;;;;;;;;;5039997;28;20048;-69
2022/06/13 13:05:50;;;;;;;6.80;2.08;;;;;;;;;;5063552;28;20473;-69
2022/06/13 13:08:24;;;;;;;8.20;1.33;;;;;;;;;;5055205;28;20029;-69
2022/06/13 13:10:58;;;;;;;6.93;1.30;;;;;;;;;;5046995;28;20416;-69
2022/06/13 13:13:44;;;;;;;4.20;1.20;;;;;;;;;;5045906;28;20104;-69
2022/06/13 13:16:14;;;;;;;5.28;1.40;;;;;;;;;;5068683;28;20030;-69
2022/06/13 13:18:40;;;;;;;7.95;2.45;;;;;;;;;;5061288;28;20484;-69
2022/06/13 13:21:08;;;;;;;7.30;1.75;;;;;;;;;;5058565;28;20041;-69
2022/06/13 13:23:44;;;;;;;4.82;1.60;;;;;;;;;;5063006;28;20020;-69
2022/06/13 13:26:18;;;;;;;7.30;1.65;;;;;;;;;;5053359;28;20025;-69
2022/06/13 13:28:58;;;;;;;8.15;1.90;;;;;;;;;;5051531;28;20101;-69
2022/06/13 13:31:44;;;;;;;3.83;1.30;;;;;;;;;;5046606;28;20059;-69
2022/06/13 13:34:28;;;;;;;6.65;1.75;;;;;;;;;;5048836;28;20028;-69
2022/06/13 13:36:56;;;;;;;5.25;1.20;;;;;;;;;;5056781;28;20021;-69
2022/06/13 13:39:35;;;;;;;4.70;1.52;;;;;;;;;;5054111;28;20971;-70
2022/06/13 13:42:05;;;;;;;4.68;1.10;;;;;;;;;;5047773;28;20032;-69
2022/06/13 13:44:37;;;;;;;4.30;1.55;;;;;;;;;;5051745;28;20471;-70
2022/06/13 13:47:02;;;;;;;10.90;2.28;;;;;;;;;;5049868;28;20059;-69
2022/06/13 13:49:42;;;;;;;7.85;1.80;;;;;;;;;;5063323;28;20024;-70
2022/06/13 13:52:13;;;;;;;5.13;1.50;;;;;;;;;;5062295;28;20031;-69
2022/06/13 13:54:40;;;;;;;6.22;2.13;;;;;;;;;;5055762;28;20020;-69
2022/06/13 13:57:10;;;;;;;5.30;2.00;;;;;;;;;;5054535;28;20029;-69
2022/06/13 13:59:41;;;;;;;4.60;1.65;;;;;;;;;;5054334;28;20025;-69
2022/06/13 14:02:25;;;;;;;5.38;1.60;;;;;;;;;;5060410;28;20032;-69
2022/06/13 14:05:02;;;;;;;11.48;1.95;;;;;;;;;;5056264;28;20082;-69
2022/06/13 14:07:46;;;;;;;7.95;1.70;;;;;;;;;;5054762;28;20025;-69
2022/06/13 14:10:13;;;;;;;12.43;2.63;;;;;;;;;;5053301;28;20120;-69
2022/06/13 14:13:16;;;;;;;3.15;1.38;;;;;;;;;;5048989;28;20028;-69
2022/06/13 14:15:47;;;;;;;10.45;1.85;;;;;;;;;;4979420;28;20022;-69
2022/06/13 14:18:17;;;;;;;3.03;1.30;;;;;;;;;;4971864;28;20027;-70
2022/06/13 14:20:43;;;;;;;9.98;1.58;;;;;;;;;;5012026;28;20070;-69
2022/06/13 14:23:08;;;;;;;5.07;1.60;;;;;;;;;;5060231;28;20029;-69
2022/06/13 14:25:35;;;;;;;4.97;1.33;;;;;;;;;;5051466;28;20052;-69
2022/06/13 14:28:02;;;;;;;2.92;1.30;;;;;;;;;;5045417;28;20060;-69
2022/06/13 14:36:01;;;;;;;2.92;1.33;;;;;;;;;;5058375;28;20020;-70
2022/06/13 14:38:44;;;;;;;6.28;1.33;;;;;;;;;;5045102;28;20020;-69
2022/06/13 14:41:14;;;;;;;7.55;1.23;;;;;;;;;;5050162;28;20031;-70
2022/06/13 14:43:59;;;;;;;7.78;1.30;;;;;;;;;;5052862;28;20021;-69
2022/06/13 14:46:27;;;;;;;4.45;1.50;;;;;;;;;;5046574;28;20029;-70
2022/06/13 14:48:55;;;;;;;4.68;1.25;;;;;;;;;;5061321;28;20060;-71
2022/06/13 14:51:23;;;;;;;9.52;1.17;;;;;;;;;;5053326;28;20493;-71
2022/06/13 14:53:53;;;;;;;2.95;0.95;;;;;;;;;;5030065;28;20021;-71
2022/06/13 14:56:27;;;;;;;9.02;1.40;;;;;;;;;;5049111;28;20178;-71
2022/06/13 14:59:00;;;;;;;4.95;0.90;;;;;;;;;;5056983;28;20496;-71
2022/06/13 15:01:34;;;;;;;8.18;2.13;;;;;;;;;;5047275;28;20101;-71
2022/06/13 15:04:07;;;;;;;4.65;1.00;;;;;;;;;;5055881;28;20021;-71
2022/06/13 15:06:41;;;;;;;8.60;1.17;;;;;;;;;;5062249;28;20036;-71
2022/06/13 15:09:07;;;;;;;6.22;1.02;;;;;;;;;;5048162;28;20020;-71
2022/06/13 15:11:37;;;;;;;3.03;0.90;;;;;;;;;;5054342;28;20070;-71
2022/06/13 15:14:02;;;;;;;4.55;0.98;;;;;;;;;;5048165;28;20017;-71
2022/06/13 15:16:29;;;;;;;8.07;1.25;;;;;;;;;;5045561;28;20094;-71
2022/06/13 15:18:57;;;;;;;5.25;1.15;;;;;;;;;;5062975;28;20116;-71
2022/06/13 15:21:23;;;;;;;6.28;0.93;;;;;;;;;;5043848;28;20103;-71